sensor_id;sensor_type;location;lat;lon;timestamp;P1;durP1;ratioP1;P2;durP2;ratioP2
59960;SDS011;55902;-37.980;-63.602;2022-11-15T00:01:16;1.83;;;1.08;;
59960;SDS011;55902;-37.980;-63.602;2022-11-15T00:03:44;1.60;;;1.20;;
59960;SDS011;55902;-37.980;-63.602;2022-11-15T00:06:11;2.13;;;1.10;;
59960;SDS011;55902;-37.980;-63.602;2022-11-15T00:08:38;3.47;;;1.17;;
59960;SDS011;55902;-37.980;-63.602;2022-11-15T00:11:05;2.67;;;1.10;;
59960;SDS011;55902;-37.980;-63.602;2022-11-15T00:13:33;1.98;;;1.05;;
59960;SDS011;55902;-37.980;-63.602;2022-11-15T00:16:00;1.67;;;1.00;;
59960;SDS011;55902;-37.980;-63.602;2022-11-15T00:18:28;3.90;;;1.33;;
59960;SDS011;55902;-37.980;-63.602;2022-11-15T00:21:06;2.15;;;1.20;;
59960;SDS011;55902;-37.980;-63.602;2022-11-15T00:23:35;4.15;;;1.35;;
59960;SDS011;55902;-37.980;-63.602;2022-11-15T00:26:03;1.85;;;1.05;;
59960;SDS011;55902;-37.980;-63.602;2022-11-15T00:28:30;1.40;;;0.90;;
59960;SDS011;55902;-37.980;-63.602;2022-11-15T00:31:03;2.22;;;1.02;;
59960;SDS011;55902;-37.980;-63.602;2022-11-15T00:33:32;1.58;;;1.00;;
59960;SDS011;55902;-37.980;-63.602;2022-11-15T00:36:03;1.48;;;1.00;;
59960;SDS011;55902;-37.980;-63.602;2022-11-15T00:38:38;1.35;;;0.90;;
59960;SDS011;55902;-37.980;-63.602;2022-11-15T00:41:06;2.00;;;1.00;;
59960;SDS011;55902;-37.980;-63.602;2022-11-15T00:43:34;1.27;;;1.00;;
59960;SDS011;55902;-37.980;-63.602;2022-11-15T00:46:01;3.50;;;1.00;;
59960;SDS011;55902;-37.980;-63.602;2022-11-15T00:48:31;3.15;;;1.55;;
59960;SDS011;55902;-37.980;-63.602;2022-11-15T00:50:58;1.73;;;1.00;;
59960;SDS011;55902;-37.980;-63.602;2022-11-15T00:53:25;1.95;;;1.10;;
59960;SDS011;55902;-37.980;-63.602;2022-11-15T00:55:52;2.10;;;0.90;;
59960;SDS011;55902;-37.980;-63.602;2022-11-15T00:58:19;1.85;;;1.00;;
59960;SDS011;55902;-37.980;-63.602;2022-11-15T01:00:48;1.13;;;0.90;;
59960;SDS011;55902;-37.980;-63.602;2022-11-15T01:03:15;1.70;;;0.90;;
59960;SDS011;55902;-37.980;-63.602;2022-11-15T01:05:42;1.33;;;0.90;;
59960;SDS011;55902;-37.980;-63.602;2022-11-15T01:08:13;1.10;;;0.90;;
59960;SDS011;55902;-37.980;-63.602;2022-11-15T01:10:40;1.30;;;0.80;;
59960;SDS011;55902;-37.980;-63.602;2022-11-15T01:13:08;1.83;;;1.10;;
59960;SDS011;55902;-37.980;-63.602;2022-11-15T01:15:38;1.65;;;0.80;;
59960;SDS011;55902;-37.980;-63.602;2022-11-15T01:18:06;1.95;;;0.82;;
59960;SDS011;55902;-37.980;-63.602;2022-11-15T01:20:39;3.22;;;0.80;;
59960;SDS011;55902;-37.980;-63.602;2022-11-15T01:23:07;1.10;;;0.80;;
59960;SDS011;55902;-37.980;-63.602;2022-11-15T01:25:34;1.50;;;0.80;;
59960;SDS011;55902;-37.980;-63.602;2022-11-15T01:28:01;1.35;;;0.90;;
59960;SDS011;55902;-37.980;-63.602;2022-11-15T01:30:28;1.95;;;0.80;;
59960;SDS011;55902;-37.980;-63.602;2022-11-15T01:32:55;2.20;;;1.35;;
59960;SDS011;55902;-37.980;-63.602;2022-11-15T01:35:22;2.13;;;0.80;;
59960;SDS011;55902;-37.980;-63.602;2022-11-15T01:37:49;2.42;;;0.90;;
59960;SDS011;55902;-37.980;-63.602;2022-11-15T01:40:16;1.80;;;0.90;;
59960;SDS011;55902;-37.980;-63.602;2022-11-15T01:42:43;2.10;;;0.90;;
59960;SDS011;55902;-37.980;-63.602;2022-11-15T01:45:14;1.20;;;0.90;;
59960;SDS011;55902;-37.980;-63.602;2022-11-15T01:47:51;2.78;;;0.80;;
59960;SDS011;55902;-37.980;-63.602;2022-11-15T01:50:22;1.50;;;0.75;;
59960;SDS011;55902;-37.980;-63.602;2022-11-15T01:52:55;2.20;;;1.00;;
59960;SDS011;55902;-37.980;-63.602;2022-11-15T01:55:24;1.52;;;1.00;;
59960;SDS011;55902;-37.980;-63.602;2022-11-15T01:57:57;2.10;;;0.95;;
59960;SDS011;55902;-37.980;-63.602;2022-11-15T02:00:26;3.40;;;1.00;;
59960;SDS011;55902;-37.980;-63.602;2022-11-15T02:02:54;4.28;;;1.00;;
59960;SDS011;55902;-37.980;-63.602;2022-11-15T02:05:21;4.55;;;1.00;;
59960;SDS011;55902;-37.980;-63.602;2022-11-15T02:07:48;3.72;;;0.93;;
59960;SDS011;55902;-37.980;-63.602;2022-11-15T02:10:20;2.08;;;0.88;;
59960;SDS011;55902;-37.980;-63.602;2022-11-15T02:12:48;6.05;;;1.10;;
59960;SDS011;55902;-37.980;-63.602;2022-11-15T02:15:16;3.22;;;0.82;;
59960;SDS011;55902;-37.980;-63.602;2022-11-15T02:31:48;1.65;;;0.90;;
59960;SDS011;55902;-37.980;-63.602;2022-11-15T02:34:28;1.98;;;0.90;;
59960;SDS011;55902;-37.980;-63.602;2022-11-15T02:37:32;1.27;;;1.00;;
59960;SDS011;55902;-37.980;-63.602;2022-11-15T02:40:13;1.20;;;0.95;;
59960;SDS011;55902;-37.980;-63.602;2022-11-15T02:43:09;1.90;;;1.05;;
59960;SDS011;55902;-37.980;-63.602;2022-11-15T02:46:03;1.20;;;0.98;;
59960;SDS011;55902;-37.980;-63.602;2022-11-15T02:49:12;1.65;;;1.10;;
59960;SDS011;55902;-37.980;-63.602;2022-11-15T02:51:41;1.58;;;1.05;;
59960;SDS011;55902;-37.980;-63.602;2022-11-15T02:54:14;1.45;;;1.10;;
59960;SDS011;55902;-37.980;-63.602;2022-11-15T02:56:53;1.80;;;1.00;;
59960;SDS011;55902;-37.980;-63.602;2022-11-15T02:59:31;1.45;;;1.10;;
59960;SDS011;55902;-37.980;-63.602;2022-11-15T03:02:23;1.42;;;1.13;;
59960;SDS011;55902;-37.980;-63.602;2022-11-15T03:05:13;2.05;;;1.20;;
59960;SDS011;55902;-37.980;-63.602;2022-11-15T03:07:55;1.35;;;1.10;;
59960;SDS011;55902;-37.980;-63.602;2022-11-15T03:15:50;9.75;;;1.90;;
59960;SDS011;55902;-37.980;-63.602;2022-11-15T03:18:47;2.83;;;1.20;;
59960;SDS011;55902;-37.980;-63.602;2022-11-15T03:21:19;3.15;;;1.20;;
59960;SDS011;55902;-37.980;-63.602;2022-11-15T03:27:09;2.25;;;1.10;;
59960;SDS011;55902;-37.980;-63.602;2022-11-15T03:29:43;3.00;;;1.30;;
59960;SDS011;55902;-37.980;-63.602;2022-11-15T03:32:16;3.22;;;1.30;;
59960;SDS011;55902;-37.980;-63.602;2022-11-15T03:45:58;1.77;;;1.08;;
59960;SDS011;55902;-37.980;-63.602;2022-11-15T03:48:35;1.10;;;0.90;;
59960;SDS011;55902;-37.980;-63.602;2022-11-15T03:51:06;1.40;;;1.05;;
59960;SDS011;55902;-37.980;-63.602;2022-11-15T03:53:33;2.00;;;1.10;;
59960;SDS011;55902;-37.980;-63.602;2022-11-15T03:56:00;1.85;;;1.00;;
59960;SDS011;55902;-37.980;-63.602;2022-11-15T03:58:27;1.83;;;1.00;;
59960;SDS011;55902;-37.980;-63.602;2022-11-15T04:00:54;1.85;;;1.05;;
59960;SDS011;55902;-37.980;-63.602;2022-11-15T04:03:21;2.30;;;1.00;;
59960;SDS011;55902;-37.980;-63.602;2022-11-15T04:05:47;1.38;;;1.02;;
59960;SDS011;55902;-37.980;-63.602;2022-11-15T04:08:14;1.30;;;1.00;;
59960;SDS011;55902;-37.980;-63.602;2022-11-15T04:10:41;1.58;;;1.00;;
59960;SDS011;55902;-37.980;-63.602;2022-11-15T04:13:08;1.20;;;0.98;;
59960;SDS011;55902;-37.980;-63.602;2022-11-15T04:15:35;2.75;;;1.13;;
59960;SDS011;55902;-37.980;-63.602;2022-11-15T04:18:02;2.55;;;1.00;;
59960;SDS011;55902;-37.980;-63.602;2022-11-15T04:20:30;1.20;;;1.00;;
59960;SDS011;55902;-37.980;-63.602;2022-11-15T04:23:16;1.10;;;1.00;;
59960;SDS011;55902;-37.980;-63.602;2022-11-15T04:29:28;1.75;;;1.08;;
59960;SDS011;55902;-37.980;-63.602;2022-11-15T04:32:05;1.38;;;1.00;;
59960;SDS011;55902;-37.980;-63.602;2022-11-15T04:34:33;1.40;;;1.20;;
59960;SDS011;55902;-37.980;-63.602;2022-11-15T04:37:00;1.20;;;1.10;;
59960;SDS011;55902;-37.980;-63.602;2022-11-15T04:39:40;1.20;;;1.00;;
59960;SDS011;55902;-37.980;-63.602;2022-11-15T04:42:09;1.60;;;1.20;;
59960;SDS011;55902;-37.980;-63.602;2022-11-15T04:44:36;1.80;;;1.15;;
59960;SDS011;55902;-37.980;-63.602;2022-11-15T04:47:03;1.30;;;1.10;;
59960;SDS011;55902;-37.980;-63.602;2022-11-15T04:49:31;1.27;;;1.10;;
59960;SDS011;55902;-37.980;-63.602;2022-11-15T04:51:58;1.85;;;1.45;;
59960;SDS011;55902;-37.980;-63.602;2022-11-15T04:54:25;1.30;;;1.20;;
59960;SDS011;55902;-37.980;-63.602;2022-11-15T04:56:52;1.30;;;1.20;;
59960;SDS011;55902;-37.980;-63.602;2022-11-15T04:59:19;2.10;;;1.20;;
59960;SDS011;55902;-37.980;-63.602;2022-11-15T05:01:45;1.63;;;1.27;;
59960;SDS011;55902;-37.980;-63.602;2022-11-15T05:04:15;3.28;;;1.20;;
59960;SDS011;55902;-37.980;-63.602;2022-11-15T05:06:48;1.42;;;1.20;;
59960;SDS011;55902;-37.980;-63.602;2022-11-15T05:09:19;1.38;;;1.20;;
59960;SDS011;55902;-37.980;-63.602;2022-11-15T05:11:47;1.45;;;1.30;;
59960;SDS011;55902;-37.980;-63.602;2022-11-15T05:14:17;1.40;;;1.30;;
59960;SDS011;55902;-37.980;-63.602;2022-11-15T05:16:44;1.92;;;1.40;;
59960;SDS011;55902;-37.980;-63.602;2022-11-15T05:19:11;1.38;;;1.27;;
59960;SDS011;55902;-37.980;-63.602;2022-11-15T05:21:38;3.00;;;1.50;;
59960;SDS011;55902;-37.980;-63.602;2022-11-15T05:24:06;2.28;;;1.60;;
59960;SDS011;55902;-37.980;-63.602;2022-11-15T05:26:35;3.17;;;1.50;;
59960;SDS011;55902;-37.980;-63.602;2022-11-15T05:29:02;2.85;;;1.60;;
59960;SDS011;55902;-37.980;-63.602;2022-11-15T05:31:29;2.00;;;1.40;;
59960;SDS011;55902;-37.980;-63.602;2022-11-15T05:33:56;1.95;;;1.55;;
59960;SDS011;55902;-37.980;-63.602;2022-11-15T05:36:37;1.60;;;1.50;;
59960;SDS011;55902;-37.980;-63.602;2022-11-15T05:39:08;2.35;;;1.50;;
59960;SDS011;55902;-37.980;-63.602;2022-11-15T05:41:37;1.83;;;1.60;;
59960;SDS011;55902;-37.980;-63.602;2022-11-15T05:44:09;2.13;;;1.50;;
59960;SDS011;55902;-37.980;-63.602;2022-11-15T05:46:38;2.13;;;1.50;;
59960;SDS011;55902;-37.980;-63.602;2022-11-15T05:49:09;1.58;;;1.45;;
59960;SDS011;55902;-37.980;-63.602;2022-11-15T05:51:39;1.90;;;1.60;;
59960;SDS011;55902;-37.980;-63.602;2022-11-15T05:54:07;2.15;;;1.60;;
59960;SDS011;55902;-37.980;-63.602;2022-11-15T05:56:35;1.80;;;1.60;;
59960;SDS011;55902;-37.980;-63.602;2022-11-15T05:59:02;1.98;;;1.60;;
59960;SDS011;55902;-37.980;-63.602;2022-11-15T06:01:29;1.80;;;1.63;;
59960;SDS011;55902;-37.980;-63.602;2022-11-15T06:03:56;1.80;;;1.50;;
59960;SDS011;55902;-37.980;-63.602;2022-11-15T06:06:23;1.90;;;1.60;;
59960;SDS011;55902;-37.980;-63.602;2022-11-15T06:08:50;1.80;;;1.50;;
59960;SDS011;55902;-37.980;-63.602;2022-11-15T06:11:17;2.28;;;1.70;;
59960;SDS011;55902;-37.980;-63.602;2022-11-15T06:13:44;1.90;;;1.70;;
59960;SDS011;55902;-37.980;-63.602;2022-11-15T06:19:33;1.90;;;1.50;;
59960;SDS011;55902;-37.980;-63.602;2022-11-15T06:21:59;2.78;;;1.60;;
59960;SDS011;55902;-37.980;-63.602;2022-11-15T06:24:26;1.75;;;1.60;;
59960;SDS011;55902;-37.980;-63.602;2022-11-15T06:26:53;2.55;;;1.70;;
59960;SDS011;55902;-37.980;-63.602;2022-11-15T06:29:20;2.90;;;1.80;;
59960;SDS011;55902;-37.980;-63.602;2022-11-15T06:31:49;1.95;;;1.65;;
59960;SDS011;55902;-37.980;-63.602;2022-11-15T06:34:17;1.90;;;1.70;;
59960;SDS011;55902;-37.980;-63.602;2022-11-15T06:36:44;2.05;;;1.85;;
59960;SDS011;55902;-37.980;-63.602;2022-11-15T06:39:11;2.10;;;1.90;;
59960;SDS011;55902;-37.980;-63.602;2022-11-15T06:41:37;2.13;;;1.80;;
59960;SDS011;55902;-37.980;-63.602;2022-11-15T06:44:06;2.17;;;1.85;;
59960;SDS011;55902;-37.980;-63.602;2022-11-15T06:46:33;1.80;;;1.60;;
59960;SDS011;55902;-37.980;-63.602;2022-11-15T06:48:59;2.42;;;1.75;;
59960;SDS011;55902;-37.980;-63.602;2022-11-15T06:51:26;2.45;;;1.90;;
59960;SDS011;55902;-37.980;-63.602;2022-11-15T06:53:53;3.58;;;1.80;;
59960;SDS011;55902;-37.980;-63.602;2022-11-15T06:56:20;1.90;;;1.70;;
59960;SDS011;55902;-37.980;-63.602;2022-11-15T06:58:47;2.35;;;1.90;;
59960;SDS011;55902;-37.980;-63.602;2022-11-15T07:01:14;2.45;;;1.80;;
59960;SDS011;55902;-37.980;-63.602;2022-11-15T07:03:41;2.70;;;1.92;;
59960;SDS011;55902;-37.980;-63.602;2022-11-15T07:06:08;2.47;;;2.15;;
59960;SDS011;55902;-37.980;-63.602;2022-11-15T07:08:36;2.80;;;1.98;;
59960;SDS011;55902;-37.980;-63.602;2022-11-15T07:11:04;2.17;;;1.98;;
59960;SDS011;55902;-37.980;-63.602;2022-11-15T07:13:34;2.13;;;1.92;;
59960;SDS011;55902;-37.980;-63.602;2022-11-15T07:16:03;2.10;;;1.90;;
59960;SDS011;55902;-37.980;-63.602;2022-11-15T07:18:33;2.50;;;2.00;;
59960;SDS011;55902;-37.980;-63.602;2022-11-15T07:21:04;2.10;;;1.90;;
59960;SDS011;55902;-37.980;-63.602;2022-11-15T07:23:36;2.13;;;1.90;;
59960;SDS011;55902;-37.980;-63.602;2022-11-15T07:26:04;2.15;;;1.95;;
59960;SDS011;55902;-37.980;-63.602;2022-11-15T07:28:31;2.13;;;1.90;;
59960;SDS011;55902;-37.980;-63.602;2022-11-15T07:31:01;2.00;;;1.80;;
59960;SDS011;55902;-37.980;-63.602;2022-11-15T07:33:29;3.15;;;1.90;;
59960;SDS011;55902;-37.980;-63.602;2022-11-15T07:39:36;2.30;;;1.80;;
59960;SDS011;55902;-37.980;-63.602;2022-11-15T07:42:05;3.25;;;1.90;;
59960;SDS011;55902;-37.980;-63.602;2022-11-15T07:44:50;2.17;;;1.90;;
59960;SDS011;55902;-37.980;-63.602;2022-11-15T07:58:46;2.60;;;1.65;;
59960;SDS011;55902;-37.980;-63.602;2022-11-15T08:01:13;2.05;;;1.80;;
59960;SDS011;55902;-37.980;-63.602;2022-11-15T08:03:40;1.63;;;1.52;;
59960;SDS011;55902;-37.980;-63.602;2022-11-15T08:06:07;1.80;;;1.55;;
59960;SDS011;55902;-37.980;-63.602;2022-11-15T08:08:35;2.05;;;1.70;;
59960;SDS011;55902;-37.980;-63.602;2022-11-15T08:11:02;1.73;;;1.60;;
59960;SDS011;55902;-37.980;-63.602;2022-11-15T08:13:29;2.05;;;1.60;;
59960;SDS011;55902;-37.980;-63.602;2022-11-15T08:15:59;1.67;;;1.50;;
59960;SDS011;55902;-37.980;-63.602;2022-11-15T08:18:28;1.83;;;1.60;;
59960;SDS011;55902;-37.980;-63.602;2022-11-15T08:20:58;1.98;;;1.55;;
59960;SDS011;55902;-37.980;-63.602;2022-11-15T08:23:26;2.05;;;1.70;;
59960;SDS011;55902;-37.980;-63.602;2022-11-15T08:25:58;2.80;;;1.50;;
59960;SDS011;55902;-37.980;-63.602;2022-11-15T08:28:29;2.00;;;1.60;;
59960;SDS011;55902;-37.980;-63.602;2022-11-15T08:30:57;2.92;;;1.60;;
59960;SDS011;55902;-37.980;-63.602;2022-11-15T08:33:24;2.35;;;1.50;;
59960;SDS011;55902;-37.980;-63.602;2022-11-15T08:35:51;2.30;;;1.75;;
59960;SDS011;55902;-37.980;-63.602;2022-11-15T08:38:17;2.17;;;1.60;;
59960;SDS011;55902;-37.980;-63.602;2022-11-15T08:40:44;1.70;;;1.50;;
59960;SDS011;55902;-37.980;-63.602;2022-11-15T08:43:11;2.45;;;1.60;;
59960;SDS011;55902;-37.980;-63.602;2022-11-15T08:45:38;2.38;;;1.40;;
59960;SDS011;55902;-37.980;-63.602;2022-11-15T08:48:05;3.38;;;1.50;;
59960;SDS011;55902;-37.980;-63.602;2022-11-15T08:50:32;2.83;;;1.70;;
59960;SDS011;55902;-37.980;-63.602;2022-11-15T08:53:04;2.05;;;1.60;;
59960;SDS011;55902;-37.980;-63.602;2022-11-15T08:55:32;3.10;;;1.70;;
59960;SDS011;55902;-37.980;-63.602;2022-11-15T08:58:02;6.50;;;1.70;;
59960;SDS011;55902;-37.980;-63.602;2022-11-15T09:00:29;2.50;;;1.50;;
59960;SDS011;55902;-37.980;-63.602;2022-11-15T09:02:55;1.60;;;1.40;;
59960;SDS011;55902;-37.980;-63.602;2022-11-15T09:05:22;1.48;;;1.30;;
59960;SDS011;55902;-37.980;-63.602;2022-11-15T09:14:36;1.58;;;1.30;;
59960;SDS011;55902;-37.980;-63.602;2022-11-15T09:17:06;1.50;;;1.40;;
59960;SDS011;55902;-37.980;-63.602;2022-11-15T09:19:35;1.63;;;1.30;;
59960;SDS011;55902;-37.980;-63.602;2022-11-15T09:22:05;1.52;;;1.33;;
59960;SDS011;55902;-37.980;-63.602;2022-11-15T09:24:33;2.22;;;1.20;;
59960;SDS011;55902;-37.980;-63.602;2022-11-15T09:27:01;1.30;;;1.20;;
59960;SDS011;55902;-37.980;-63.602;2022-11-15T09:29:28;1.70;;;1.60;;
59960;SDS011;55902;-37.980;-63.602;2022-11-15T09:31:54;2.25;;;1.50;;
59960;SDS011;55902;-37.980;-63.602;2022-11-15T09:34:21;2.40;;;1.23;;
59960;SDS011;55902;-37.980;-63.602;2022-11-15T09:36:48;1.40;;;1.30;;
59960;SDS011;55902;-37.980;-63.602;2022-11-15T09:39:15;3.58;;;1.30;;
59960;SDS011;55902;-37.980;-63.602;2022-11-15T09:54:39;1.42;;;1.20;;
59960;SDS011;55902;-37.980;-63.602;2022-11-15T09:57:13;1.90;;;1.20;;
59960;SDS011;55902;-37.980;-63.602;2022-11-15T10:03:11;1.85;;;1.10;;
59960;SDS011;55902;-37.980;-63.602;2022-11-15T10:05:22;1.35;;;1.10;;
59960;SDS011;55902;-37.980;-63.602;2022-11-15T10:08:11;1.55;;;1.23;;
59960;SDS011;55902;-37.980;-63.602;2022-11-15T10:10:41;1.20;;;1.10;;
59960;SDS011;55902;-37.980;-63.602;2022-11-15T10:13:16;1.90;;;1.27;;
59960;SDS011;55902;-37.980;-63.602;2022-11-15T10:15:51;2.97;;;1.10;;
59960;SDS011;55902;-37.980;-63.602;2022-11-15T10:21:17;1.10;;;1.00;;
59960;SDS011;55902;-37.980;-63.602;2022-11-15T10:23:50;1.17;;;1.00;;
59960;SDS011;55902;-37.980;-63.602;2022-11-15T10:26:18;1.23;;;0.90;;
59960;SDS011;55902;-37.980;-63.602;2022-11-15T10:28:45;1.65;;;0.95;;
59960;SDS011;55902;-37.980;-63.602;2022-11-15T10:31:22;1.08;;;0.90;;
59960;SDS011;55902;-37.980;-63.602;2022-11-15T10:33:59;1.48;;;0.85;;
59960;SDS011;55902;-37.980;-63.602;2022-11-15T10:37:00;1.20;;;0.90;;
59960;SDS011;55902;-37.980;-63.602;2022-11-15T10:39:29;1.08;;;0.90;;
59960;SDS011;55902;-37.980;-63.602;2022-11-15T10:42:05;2.22;;;0.90;;
59960;SDS011;55902;-37.980;-63.602;2022-11-15T10:44:51;2.45;;;0.90;;
59960;SDS011;55902;-37.980;-63.602;2022-11-15T10:47:23;2.17;;;0.90;;
59960;SDS011;55902;-37.980;-63.602;2022-11-15T10:49:58;1.08;;;0.90;;
59960;SDS011;55902;-37.980;-63.602;2022-11-15T10:52:25;1.10;;;0.90;;
59960;SDS011;55902;-37.980;-63.602;2022-11-15T11:01:24;2.10;;;0.95;;
59960;SDS011;55902;-37.980;-63.602;2022-11-15T11:06:46;1.10;;;0.80;;
59960;SDS011;55902;-37.980;-63.602;2022-11-15T11:09:33;2.00;;;1.38;;
59960;SDS011;55902;-37.980;-63.602;2022-11-15T11:12:03;1.38;;;0.80;;
59960;SDS011;55902;-37.980;-63.602;2022-11-15T11:17:04;1.73;;;0.80;;
59960;SDS011;55902;-37.980;-63.602;2022-11-15T11:22:17;2.17;;;0.80;;
59960;SDS011;55902;-37.980;-63.602;2022-11-15T11:25:03;1.70;;;0.80;;
59960;SDS011;55902;-37.980;-63.602;2022-11-15T11:32:55;2.13;;;0.97;;
59960;SDS011;55902;-37.980;-63.602;2022-11-15T11:36:04;1.00;;;0.80;;
59960;SDS011;55902;-37.980;-63.602;2022-11-15T11:39:17;1.40;;;0.93;;
59960;SDS011;55902;-37.980;-63.602;2022-11-15T11:44:51;1.48;;;0.70;;
59960;SDS011;55902;-37.980;-63.602;2022-11-15T11:47:23;1.30;;;0.70;;
59960;SDS011;55902;-37.980;-63.602;2022-11-15T11:49:59;1.95;;;0.80;;
59960;SDS011;55902;-37.980;-63.602;2022-11-15T11:52:57;2.65;;;0.90;;
59960;SDS011;55902;-37.980;-63.602;2022-11-15T11:58:13;1.50;;;0.70;;
59960;SDS011;55902;-37.980;-63.602;2022-11-15T12:00:42;3.30;;;0.73;;
59960;SDS011;55902;-37.980;-63.602;2022-11-15T12:08:58;1.13;;;0.70;;
59960;SDS011;55902;-37.980;-63.602;2022-11-15T12:11:47;1.55;;;0.65;;
59960;SDS011;55902;-37.980;-63.602;2022-11-15T12:17:21;1.23;;;0.60;;
59960;SDS011;55902;-37.980;-63.602;2022-11-15T12:19:57;1.77;;;0.60;;
59960;SDS011;55902;-37.980;-63.602;2022-11-15T12:25:08;1.65;;;0.60;;
59960;SDS011;55902;-37.980;-63.602;2022-11-15T12:27:56;1.20;;;0.60;;
59960;SDS011;55902;-37.980;-63.602;2022-11-15T12:36:03;2.75;;;0.80;;
59960;SDS011;55902;-37.980;-63.602;2022-11-15T12:39:08;1.80;;;0.80;;
59960;SDS011;55902;-37.980;-63.602;2022-11-15T12:41:38;1.40;;;0.60;;
59960;SDS011;55902;-37.980;-63.602;2022-11-15T12:44:11;1.60;;;0.50;;
59960;SDS011;55902;-37.980;-63.602;2022-11-15T12:47:00;1.65;;;0.60;;
59960;SDS011;55902;-37.980;-63.602;2022-11-15T12:59:51;2.45;;;0.73;;
59960;SDS011;55902;-37.980;-63.602;2022-11-15T13:02:39;1.75;;;0.60;;
59960;SDS011;55902;-37.980;-63.602;2022-11-15T13:13:08;2.13;;;0.60;;
59960;SDS011;55902;-37.980;-63.602;2022-11-15T13:15:37;3.00;;;0.77;;
59960;SDS011;55902;-37.980;-63.602;2022-11-15T13:21:02;1.42;;;0.60;;
59960;SDS011;55902;-37.980;-63.602;2022-11-15T13:24:03;2.17;;;0.50;;
59960;SDS011;55902;-37.980;-63.602;2022-11-15T13:26:31;1.15;;;0.60;;
59960;SDS011;55902;-37.980;-63.602;2022-11-15T13:28:59;2.45;;;0.60;;
59960;SDS011;55902;-37.980;-63.602;2022-11-15T13:31:37;1.60;;;0.50;;
59960;SDS011;55902;-37.980;-63.602;2022-11-15T13:34:22;1.00;;;0.50;;
59960;SDS011;55902;-37.980;-63.602;2022-11-15T13:36:52;2.00;;;0.60;;
59960;SDS011;55902;-37.980;-63.602;2022-11-15T13:39:29;1.00;;;0.60;;
59960;SDS011;55902;-37.980;-63.602;2022-11-15T13:41:58;0.88;;;0.50;;
59960;SDS011;55902;-37.980;-63.602;2022-11-15T13:44:27;1.25;;;0.60;;
59960;SDS011;55902;-37.980;-63.602;2022-11-15T13:49:57;0.90;;;0.50;;
59960;SDS011;55902;-37.980;-63.602;2022-11-15T13:52:31;0.80;;;0.40;;
59960;SDS011;55902;-37.980;-63.602;2022-11-15T13:55:03;2.35;;;0.57;;
59960;SDS011;55902;-37.980;-63.602;2022-11-15T13:57:53;2.17;;;0.60;;
59960;SDS011;55902;-37.980;-63.602;2022-11-15T14:03:15;1.10;;;0.60;;
59960;SDS011;55902;-37.980;-63.602;2022-11-15T14:06:01;1.95;;;0.68;;
59960;SDS011;55902;-37.980;-63.602;2022-11-15T14:08:39;0.95;;;0.50;;
59960;SDS011;55902;-37.980;-63.602;2022-11-15T14:13:42;3.40;;;0.80;;
59960;SDS011;55902;-37.980;-63.602;2022-11-15T14:16:33;1.50;;;0.50;;
59960;SDS011;55902;-37.980;-63.602;2022-11-15T14:19:03;1.02;;;0.47;;
59960;SDS011;55902;-37.980;-63.602;2022-11-15T14:21:31;2.40;;;0.60;;
59960;SDS011;55902;-37.980;-63.602;2022-11-15T14:24:18;1.52;;;0.60;;
59960;SDS011;55902;-37.980;-63.602;2022-11-15T14:26:46;1.23;;;0.60;;
59960;SDS011;55902;-37.980;-63.602;2022-11-15T14:29:29;2.78;;;0.70;;
59960;SDS011;55902;-37.980;-63.602;2022-11-15T14:35:18;1.38;;;0.60;;
59960;SDS011;55902;-37.980;-63.602;2022-11-15T14:37:47;1.10;;;0.63;;
59960;SDS011;55902;-37.980;-63.602;2022-11-15T14:40:16;2.55;;;0.43;;
59960;SDS011;55902;-37.980;-63.602;2022-11-15T14:42:44;0.85;;;0.50;;
59960;SDS011;55902;-37.980;-63.602;2022-11-15T14:45:19;1.20;;;0.50;;
59960;SDS011;55902;-37.980;-63.602;2022-11-15T14:47:49;1.10;;;0.50;;
59960;SDS011;55902;-37.980;-63.602;2022-11-15T14:50:17;2.15;;;0.65;;
59960;SDS011;55902;-37.980;-63.602;2022-11-15T14:52:46;1.52;;;0.55;;
59960;SDS011;55902;-37.980;-63.602;2022-11-15T14:55:15;2.00;;;0.70;;
59960;SDS011;55902;-37.980;-63.602;2022-11-15T14:57:49;1.90;;;0.60;;
59960;SDS011;55902;-37.980;-63.602;2022-11-15T15:00:18;3.65;;;1.50;;
59960;SDS011;55902;-37.980;-63.602;2022-11-15T15:02:45;1.58;;;0.50;;
59960;SDS011;55902;-37.980;-63.602;2022-11-15T15:07:40;2.13;;;0.70;;
59960;SDS011;55902;-37.980;-63.602;2022-11-15T15:10:08;1.42;;;0.52;;
59960;SDS011;55902;-37.980;-63.602;2022-11-15T15:12:35;1.27;;;0.60;;
59960;SDS011;55902;-37.980;-63.602;2022-11-15T15:15:05;1.33;;;0.60;;
59960;SDS011;55902;-37.980;-63.602;2022-11-15T15:17:38;1.50;;;0.50;;
59960;SDS011;55902;-37.980;-63.602;2022-11-15T15:20:05;1.90;;;0.70;;
59960;SDS011;55902;-37.980;-63.602;2022-11-15T15:22:34;1.58;;;0.60;;
59960;SDS011;55902;-37.980;-63.602;2022-11-15T15:25:01;1.60;;;0.55;;
59960;SDS011;55902;-37.980;-63.602;2022-11-15T15:27:29;1.85;;;0.50;;
59960;SDS011;55902;-37.980;-63.602;2022-11-15T15:29:56;2.63;;;0.60;;
59960;SDS011;55902;-37.980;-63.602;2022-11-15T15:32:26;1.20;;;0.60;;
59960;SDS011;55902;-37.980;-63.602;2022-11-15T15:34:53;2.33;;;0.60;;
59960;SDS011;55902;-37.980;-63.602;2022-11-15T15:37:24;1.00;;;0.57;;
59960;SDS011;55902;-37.980;-63.602;2022-11-15T15:39:52;1.20;;;0.50;;
59960;SDS011;55902;-37.980;-63.602;2022-11-15T15:42:23;1.05;;;0.60;;
59960;SDS011;55902;-37.980;-63.602;2022-11-15T15:44:50;2.45;;;0.82;;
59960;SDS011;55902;-37.980;-63.602;2022-11-15T15:47:21;1.40;;;0.60;;
59960;SDS011;55902;-37.980;-63.602;2022-11-15T15:49:53;2.05;;;0.60;;
59960;SDS011;55902;-37.980;-63.602;2022-11-15T15:52:20;1.13;;;0.50;;
59960;SDS011;55902;-37.980;-63.602;2022-11-15T15:54:47;1.20;;;0.50;;
59960;SDS011;55902;-37.980;-63.602;2022-11-15T15:57:14;2.33;;;0.65;;
59960;SDS011;55902;-37.980;-63.602;2022-11-15T15:59:41;0.93;;;0.50;;
59960;SDS011;55902;-37.980;-63.602;2022-11-15T16:02:09;1.42;;;0.50;;
59960;SDS011;55902;-37.980;-63.602;2022-11-15T16:04:45;0.90;;;0.50;;
59960;SDS011;55902;-37.980;-63.602;2022-11-15T16:07:15;0.98;;;0.50;;
59960;SDS011;55902;-37.980;-63.602;2022-11-15T16:09:46;1.40;;;0.55;;
59960;SDS011;55902;-37.980;-63.602;2022-11-15T16:12:29;1.55;;;0.50;;
59960;SDS011;55902;-37.980;-63.602;2022-11-15T16:14:57;1.10;;;0.63;;
59960;SDS011;55902;-37.980;-63.602;2022-11-15T16:17:26;1.00;;;0.57;;
59960;SDS011;55902;-37.980;-63.602;2022-11-15T16:20:04;2.03;;;0.70;;
59960;SDS011;55902;-37.980;-63.602;2022-11-15T16:22:31;2.67;;;0.70;;
59960;SDS011;55902;-37.980;-63.602;2022-11-15T16:24:58;2.63;;;0.50;;
59960;SDS011;55902;-37.980;-63.602;2022-11-15T16:27:25;0.90;;;0.50;;
59960;SDS011;55902;-37.980;-63.602;2022-11-15T16:29:52;0.90;;;0.50;;
59960;SDS011;55902;-37.980;-63.602;2022-11-15T16:32:19;1.48;;;0.50;;
59960;SDS011;55902;-37.980;-63.602;2022-11-15T16:34:46;1.95;;;0.60;;
59960;SDS011;55902;-37.980;-63.602;2022-11-15T16:37:32;2.85;;;0.80;;
59960;SDS011;55902;-37.980;-63.602;2022-11-15T16:39:59;1.30;;;0.50;;
59960;SDS011;55902;-37.980;-63.602;2022-11-15T16:42:26;1.95;;;0.40;;
59960;SDS011;55902;-37.980;-63.602;2022-11-15T16:44:53;3.08;;;0.50;;
59960;SDS011;55902;-37.980;-63.602;2022-11-15T16:47:24;2.35;;;0.57;;
59960;SDS011;55902;-37.980;-63.602;2022-11-15T16:49:51;0.80;;;0.60;;
59960;SDS011;55902;-37.980;-63.602;2022-11-15T16:52:18;2.88;;;0.60;;
59960;SDS011;55902;-37.980;-63.602;2022-11-15T16:54:45;2.15;;;0.50;;
59960;SDS011;55902;-37.980;-63.602;2022-11-15T16:57:12;1.25;;;0.50;;
59960;SDS011;55902;-37.980;-63.602;2022-11-15T16:59:40;0.80;;;0.40;;
59960;SDS011;55902;-37.980;-63.602;2022-11-15T17:02:11;1.02;;;0.50;;
59960;SDS011;55902;-37.980;-63.602;2022-11-15T17:04:38;2.28;;;0.60;;
59960;SDS011;55902;-37.980;-63.602;2022-11-15T17:07:05;1.40;;;0.60;;
59960;SDS011;55902;-37.980;-63.602;2022-11-15T17:09:33;1.88;;;0.52;;
59960;SDS011;55902;-37.980;-63.602;2022-11-15T17:12:00;1.33;;;0.43;;